createdAt,value
2022-08-16T00:04:43.443Z,9.13
2022-08-16T00:10:45.818Z,8.98
2022-08-16T00:17:01.408Z,8.40
2022-08-16T00:23:09.751Z,8.52
2022-08-16T00:29:17.307Z,8.52
2022-08-16T00:35:23.786Z,8.45
2022-08-16T00:41:28.372Z,8.30
2022-08-16T00:47:30.267Z,7.65
2022-08-16T00:53:32.645Z,7.65
2022-08-16T00:59:37.841Z,8.10
2022-08-16T01:05:57.089Z,7.47
2022-08-16T01:12:00.356Z,8.27
2022-08-16T01:18:05.730Z,7.43
2022-08-16T01:24:51.953Z,7.82
2022-08-16T01:30:59.013Z,6.80
2022-08-16T01:37:07.374Z,7.10
2022-08-16T01:43:10.808Z,6.47
2022-08-16T01:49:21.742Z,6.30
2022-08-16T01:55:24.968Z,6.10
2022-08-16T02:01:28.356Z,5.70
2022-08-16T02:07:30.934Z,5.35
2022-08-16T02:13:34.664Z,4.88
2022-08-16T02:19:58.923Z,5.07
2022-08-16T02:26:01.788Z,4.82
2022-08-16T02:32:50.397Z,4.75
2022-08-16T02:38:28.642Z,4.88
2022-08-16T02:44:31.325Z,4.47
2022-08-16T02:50:54.229Z,4.82
2022-08-16T02:56:54.760Z,5.32
2022-08-16T03:02:58.318Z,4.18
2022-08-16T03:09:00.789Z,4.60
2022-08-16T03:15:03.617Z,4.37
2022-08-16T03:21:07.248Z,4.15
2022-08-16T03:27:12.307Z,4.07
2022-08-16T03:33:15.882Z,4.30
2022-08-16T03:39:20.168Z,5.30
2022-08-16T03:45:24.719Z,5.35
2022-08-16T03:51:32.271Z,4.60
2022-08-16T03:57:36.267Z,4.40
2022-08-16T04:03:38.440Z,4.60
2022-08-16T04:09:40.700Z,4.22
2022-08-16T04:15:42.510Z,3.78
2022-08-16T04:21:46.016Z,4.03
2022-08-16T04:27:55.726Z,4.38
2022-08-16T04:33:59.373Z,3.78
2022-08-16T04:40:01.159Z,4.43
2022-08-16T04:46:32.015Z,4.30
2022-08-16T04:52:33.623Z,4.05
2022-08-16T04:58:43.582Z,4.05
2022-08-16T05:04:47.167Z,4.13
2022-08-16T05:10:48.935Z,4.00
2022-08-16T05:16:52.113Z,3.88
2022-08-16T05:22:54.118Z,3.90
2022-08-16T05:34:59.607Z,3.97
2022-08-16T05:41:03.224Z,4.05
2022-08-16T05:47:05.206Z,4.15
2022-08-16T05:53:09.894Z,4.35
2022-08-16T05:59:12.210Z,4.00
2022-08-16T06:05:14.529Z,4.35
2022-08-16T06:11:17.537Z,4.43
2022-08-16T06:17:21.686Z,4.07
2022-08-16T06:23:24.118Z,4.43
2022-08-16T06:29:26.085Z,4.05
2022-08-16T06:35:35.401Z,4.43
2022-08-16T06:41:42.203Z,4.60
2022-08-16T06:47:54.084Z,4.45
2022-08-16T06:53:58.184Z,4.55
2022-08-16T06:59:59.930Z,4.18
2022-08-16T07:06:04.463Z,4.25
2022-08-16T07:12:06.511Z,4.30
2022-08-16T07:18:08.489Z,4.55
2022-08-16T07:24:10.755Z,4.75
2022-08-16T07:30:39.251Z,4.50
2022-08-16T07:36:57.858Z,4.65
2022-08-16T07:43:00.244Z,4.82
2022-08-16T07:49:03.035Z,4.40
2022-08-16T08:01:10.631Z,5.25
2022-08-16T08:07:14.184Z,5.20
2022-08-16T08:13:18.229Z,5.25
2022-08-16T08:19:20.973Z,5.37
2022-08-16T08:25:22.899Z,5.18
2022-08-16T08:31:24.782Z,5.60
2022-08-16T08:37:27.545Z,4.85
2022-08-16T08:43:50.392Z,4.72
2022-08-16T08:49:55.883Z,4.95
2022-08-16T08:56:00.252Z,5.15
2022-08-16T09:02:03.178Z,4.53
2022-08-16T09:08:06.506Z,4.28
2022-08-16T09:14:24.950Z,4.88
2022-08-16T09:20:29.307Z,4.57
2022-08-16T09:26:45.762Z,4.88
2022-08-16T09:32:49.596Z,4.85
2022-08-16T09:38:51.448Z,5.43
2022-08-16T09:45:09.478Z,5.22
2022-08-16T09:51:15.494Z,4.28
2022-08-16T09:57:17.340Z,4.30
2022-08-16T10:03:19.615Z,4.10
2022-08-16T10:15:30.143Z,3.90
2022-08-16T10:21:32.306Z,3.58
2022-08-16T10:27:47.314Z,4.70
2022-08-16T10:33:53.740Z,4.40
2022-08-16T10:39:55.732Z,3.60
2022-08-16T10:46:00.130Z,3.83
2022-08-16T10:52:18.820Z,3.80
2022-08-16T10:58:21.929Z,4.22
2022-08-16T11:11:05.326Z,4.10
2022-08-16T11:17:11.396Z,3.30
2022-08-16T11:23:13.430Z,3.30
2022-08-16T11:29:19.111Z,3.50
2022-08-16T11:41:46.355Z,3.13
2022-08-16T11:47:53.243Z,3.20
2022-08-16T11:53:55.025Z,3.40
2022-08-16T11:59:56.831Z,2.92
2022-08-16T12:06:00.541Z,3.20
2022-08-16T12:12:02.883Z,2.45
2022-08-16T12:18:06.919Z,2.70
2022-08-16T12:24:09.054Z,2.78
2022-08-16T12:30:21.298Z,2.58
2022-08-16T12:36:30.160Z,2.30
2022-08-16T12:42:35.707Z,2.80
2022-08-16T12:48:56.474Z,2.30
2022-08-16T12:54:58.610Z,2.60
2022-08-16T13:01:03.347Z,2.90
2022-08-16T13:07:05.952Z,2.50
2022-08-16T13:13:10.875Z,2.60
2022-08-16T13:19:13.108Z,2.95
2022-08-16T13:25:21.295Z,2.63
2022-08-16T13:31:23.893Z,2.83
2022-08-16T13:37:25.977Z,3.10
2022-08-16T13:43:32.337Z,3.28
2022-08-16T13:49:34.908Z,2.78
2022-08-16T13:55:37.747Z,2.80
2022-08-16T14:01:43.475Z,2.58
2022-08-16T14:07:52.589Z,2.85
2022-08-16T14:13:54.721Z,3.00
2022-08-16T14:19:59.892Z,3.35
2022-08-16T14:26:02.347Z,3.45
2022-08-16T14:32:08.084Z,3.22
2022-08-16T14:38:11.119Z,2.80
2022-08-16T14:44:20.166Z,2.53
2022-08-16T14:50:25.227Z,2.80
2022-08-16T14:56:39.005Z,3.38
2022-08-16T15:02:49.486Z,2.90
2022-08-16T15:08:51.514Z,2.78
2022-08-16T15:14:55.599Z,2.90
2022-08-16T15:20:58.000Z,2.53
2022-08-16T15:27:00.769Z,3.28
2022-08-16T15:33:09.387Z,2.88
2022-08-16T15:39:30.388Z,3.30
2022-08-16T15:45:55.519Z,3.03
2022-08-16T15:51:57.602Z,2.67
2022-08-16T15:58:00.959Z,2.90
2022-08-16T16:04:25.512Z,3.00
2022-08-16T16:10:29.347Z,2.90
2022-08-16T16:16:31.691Z,2.50
2022-08-16T16:22:34.491Z,2.78
2022-08-16T16:29:26.743Z,3.00
2022-08-16T16:35:32.608Z,3.22
2022-08-16T16:41:36.820Z,2.95
2022-08-16T16:47:41.421Z,3.05
2022-08-16T16:53:47.786Z,3.05
2022-08-16T16:59:58.143Z,2.95
2022-08-16T17:06:08.856Z,2.97
2022-08-16T17:12:24.429Z,3.40
2022-08-16T17:19:14.412Z,3.08
2022-08-16T17:24:52.306Z,3.07
2022-08-16T17:30:54.681Z,3.28
2022-08-16T17:36:58.839Z,3.38
2022-08-16T17:43:01.633Z,3.10
2022-08-16T17:49:03.675Z,3.20
2022-08-16T17:55:13.750Z,3.15
2022-08-16T18:01:15.797Z,3.20
2022-08-16T18:07:17.588Z,3.33
2022-08-16T18:13:19.333Z,3.40
2022-08-16T18:19:21.043Z,3.87
2022-08-16T18:25:22.830Z,3.42
2022-08-16T18:31:25.204Z,3.87
2022-08-16T18:37:26.965Z,3.70
2022-08-16T18:43:54.400Z,7.03
2022-08-16T18:49:51.006Z,3.70
2022-08-16T18:55:55.806Z,3.47
2022-08-16T19:02:00.238Z,4.82
2022-08-16T19:08:08.026Z,3.80
2022-08-16T19:14:09.742Z,3.80
2022-08-16T19:20:13.148Z,3.75
2022-08-16T19:26:25.738Z,3.50
2022-08-16T19:38:31.531Z,3.80
2022-08-16T19:44:33.230Z,3.80
2022-08-16T19:50:36.457Z,3.50
2022-08-16T19:56:39.197Z,3.22
2022-08-16T20:02:50.862Z,3.65
2022-08-16T20:08:52.592Z,3.35
2022-08-16T20:14:54.732Z,3.10
2022-08-16T20:20:56.612Z,3.63
2022-08-16T20:26:58.468Z,3.58
2022-08-16T20:33:00.182Z,3.50
2022-08-16T20:39:04.703Z,3.78
2022-08-16T20:45:08.538Z,3.28
2022-08-16T20:51:11.147Z,3.35
2022-08-16T20:57:14.120Z,3.27
2022-08-16T21:03:16.090Z,3.72
2022-08-16T21:09:18.866Z,3.40
2022-08-16T21:15:22.010Z,3.42
2022-08-16T21:21:23.980Z,3.40
2022-08-16T21:27:33.599Z,3.72
2022-08-16T21:33:43.107Z,3.40
2022-08-16T21:39:45.065Z,3.45
2022-08-16T21:45:48.095Z,3.40
2022-08-16T21:51:56.493Z,3.45
2022-08-16T21:57:58.350Z,3.30
2022-08-16T22:04:01.626Z,3.65
2022-08-16T22:11:07.732Z,3.95
2022-08-16T22:16:45.310Z,3.90
2022-08-16T22:22:48.364Z,3.45
2022-08-16T22:28:50.509Z,3.45
2022-08-16T22:34:53.027Z,3.80
2022-08-16T22:40:55.257Z,3.72
2022-08-16T22:46:56.968Z,4.57
2022-08-16T22:52:59.393Z,4.57
2022-08-16T22:59:01.327Z,4.60
2022-08-16T23:05:03.210Z,4.80
2022-08-16T23:11:06.052Z,4.80
2022-08-16T23:17:08.385Z,5.20
2022-08-16T23:23:21.080Z,5.30
2022-08-16T23:29:26.430Z,4.93
2022-08-16T23:35:44.267Z,4.75
2022-08-16T23:41:47.667Z,4.53
2022-08-16T23:47:49.502Z,5.40
2022-08-16T23:53:51.249Z,4.70
2022-08-16T23:59:53.765Z,5.10
